sensor_id;sensor_type;location;lat;lon;timestamp;P1;durP1;ratioP1;P2;durP2;ratioP2
8048;SDS011;20935;42.660;23.342;2024-02-23T00:01:46;15.10;;;12.10;;
8048;SDS011;20935;42.660;23.342;2024-02-23T00:04:33;19.63;;;11.93;;
8048;SDS011;20935;42.660;23.342;2024-02-23T00:07:20;15.83;;;11.93;;
8048;SDS011;20935;42.660;23.342;2024-02-23T00:10:07;17.03;;;12.27;;
8048;SDS011;20935;42.660;23.342;2024-02-23T00:12:55;14.73;;;10.73;;
8048;SDS011;20935;42.660;23.342;2024-02-23T00:15:42;13.77;;;10.00;;
8048;SDS011;20935;42.660;23.342;2024-02-23T00:18:29;13.13;;;10.00;;
8048;SDS011;20935;42.660;23.342;2024-02-23T00:21:16;13.37;;;10.13;;
8048;SDS011;20935;42.660;23.342;2024-02-23T00:24:02;15.37;;;9.83;;
8048;SDS011;20935;42.660;23.342;2024-02-23T00:26:51;12.27;;;9.43;;
8048;SDS011;20935;42.660;23.342;2024-02-23T00:29:40;13.77;;;10.07;;
8048;SDS011;20935;42.660;23.342;2024-02-23T00:32:27;14.53;;;9.63;;
8048;SDS011;20935;42.660;23.342;2024-02-23T00:35:14;13.80;;;9.73;;
8048;SDS011;20935;42.660;23.342;2024-02-23T00:38:01;14.07;;;9.53;;
8048;SDS011;20935;42.660;23.342;2024-02-23T00:40:48;12.03;;;9.17;;
8048;SDS011;20935;42.660;23.342;2024-02-23T00:43:37;15.57;;;10.10;;
8048;SDS011;20935;42.660;23.342;2024-02-23T00:46:28;12.87;;;10.13;;
8048;SDS011;20935;42.660;23.342;2024-02-23T00:49:15;17.33;;;9.70;;
8048;SDS011;20935;42.660;23.342;2024-02-23T00:52:02;12.40;;;10.07;;
8048;SDS011;20935;42.660;23.342;2024-02-23T00:54:49;14.77;;;9.77;;
8048;SDS011;20935;42.660;23.342;2024-02-23T00:57:35;12.93;;;9.47;;
8048;SDS011;20935;42.660;23.342;2024-02-23T01:00:22;12.97;;;9.10;;
8048;SDS011;20935;42.660;23.342;2024-02-23T01:03:10;11.97;;;8.40;;
8048;SDS011;20935;42.660;23.342;2024-02-23T01:05:57;9.37;;;7.93;;
8048;SDS011;20935;42.660;23.342;2024-02-23T01:08:44;10.23;;;8.17;;
8048;SDS011;20935;42.660;23.342;2024-02-23T01:11:31;10.80;;;8.50;;
8048;SDS011;20935;42.660;23.342;2024-02-23T01:14:18;12.40;;;8.63;;
8048;SDS011;20935;42.660;23.342;2024-02-23T01:17:05;12.87;;;9.67;;
8048;SDS011;20935;42.660;23.342;2024-02-23T01:19:53;11.73;;;9.07;;
8048;SDS011;20935;42.660;23.342;2024-02-23T01:22:39;11.33;;;9.43;;
8048;SDS011;20935;42.660;23.342;2024-02-23T01:25:26;12.17;;;9.70;;
8048;SDS011;20935;42.660;23.342;2024-02-23T01:28:13;12.57;;;9.23;;
8048;SDS011;20935;42.660;23.342;2024-02-23T01:31:00;13.53;;;8.83;;
8048;SDS011;20935;42.660;23.342;2024-02-23T01:33:46;10.30;;;8.07;;
8048;SDS011;20935;42.660;23.342;2024-02-23T01:36:39;11.40;;;9.07;;
8048;SDS011;20935;42.660;23.342;2024-02-23T01:39:26;14.53;;;10.40;;
8048;SDS011;20935;42.660;23.342;2024-02-23T01:42:13;14.00;;;8.87;;
8048;SDS011;20935;42.660;23.342;2024-02-23T01:44:59;11.10;;;8.40;;
8048;SDS011;20935;42.660;23.342;2024-02-23T01:47:46;12.90;;;9.17;;
8048;SDS011;20935;42.660;23.342;2024-02-23T01:50:33;10.93;;;8.87;;
8048;SDS011;20935;42.660;23.342;2024-02-23T01:53:22;12.87;;;8.77;;
8048;SDS011;20935;42.660;23.342;2024-02-23T01:56:11;12.03;;;8.77;;
8048;SDS011;20935;42.660;23.342;2024-02-23T01:59:01;13.33;;;9.27;;
8048;SDS011;20935;42.660;23.342;2024-02-23T02:01:49;13.77;;;8.03;;
8048;SDS011;20935;42.660;23.342;2024-02-23T02:04:36;10.87;;;9.10;;
8048;SDS011;20935;42.660;23.342;2024-02-23T02:07:23;11.43;;;8.37;;
8048;SDS011;20935;42.660;23.342;2024-02-23T02:10:15;14.87;;;8.90;;
8048;SDS011;20935;42.660;23.342;2024-02-23T02:13:02;12.00;;;8.73;;
8048;SDS011;20935;42.660;23.342;2024-02-23T02:15:49;13.37;;;9.87;;
8048;SDS011;20935;42.660;23.342;2024-02-23T02:18:36;12.43;;;9.03;;
8048;SDS011;20935;42.660;23.342;2024-02-23T02:21:23;10.43;;;8.40;;
8048;SDS011;20935;42.660;23.342;2024-02-23T02:24:10;11.50;;;9.17;;
8048;SDS011;20935;42.660;23.342;2024-02-23T02:27:00;12.67;;;8.83;;
8048;SDS011;20935;42.660;23.342;2024-02-23T02:29:49;11.40;;;9.70;;
8048;SDS011;20935;42.660;23.342;2024-02-23T02:32:36;10.90;;;9.00;;
8048;SDS011;20935;42.660;23.342;2024-02-23T02:35:23;11.23;;;9.00;;
8048;SDS011;20935;42.660;23.342;2024-02-23T02:38:10;13.73;;;9.67;;
8048;SDS011;20935;42.660;23.342;2024-02-23T02:40:56;13.30;;;9.00;;
8048;SDS011;20935;42.660;23.342;2024-02-23T02:43:48;10.37;;;8.70;;
8048;SDS011;20935;42.660;23.342;2024-02-23T02:46:34;12.30;;;9.10;;
8048;SDS011;20935;42.660;23.342;2024-02-23T02:49:22;11.87;;;9.40;;
8048;SDS011;20935;42.660;23.342;2024-02-23T02:52:09;11.47;;;8.67;;
8048;SDS011;20935;42.660;23.342;2024-02-23T02:54:56;12.20;;;9.30;;
8048;SDS011;20935;42.660;23.342;2024-02-23T02:57:45;12.17;;;9.53;;
8048;SDS011;20935;42.660;23.342;2024-02-23T03:00:33;11.37;;;8.60;;
8048;SDS011;20935;42.660;23.342;2024-02-23T03:03:20;10.63;;;8.90;;
8048;SDS011;20935;42.660;23.342;2024-02-23T03:06:08;13.50;;;9.63;;
8048;SDS011;20935;42.660;23.342;2024-02-23T03:08:54;10.37;;;8.87;;
8048;SDS011;20935;42.660;23.342;2024-02-23T03:11:44;11.93;;;9.10;;
8048;SDS011;20935;42.660;23.342;2024-02-23T03:14:31;14.03;;;10.23;;
8048;SDS011;20935;42.660;23.342;2024-02-23T03:17:20;9.43;;;8.27;;
8048;SDS011;20935;42.660;23.342;2024-02-23T03:20:07;16.47;;;9.77;;
8048;SDS011;20935;42.660;23.342;2024-02-23T03:22:55;14.23;;;9.50;;
8048;SDS011;20935;42.660;23.342;2024-02-23T03:25:42;12.83;;;9.40;;
8048;SDS011;20935;42.660;23.342;2024-02-23T03:28:29;12.20;;;9.10;;
8048;SDS011;20935;42.660;23.342;2024-02-23T03:31:15;12.77;;;9.93;;
8048;SDS011;20935;42.660;23.342;2024-02-23T03:34:04;10.50;;;8.17;;
8048;SDS011;20935;42.660;23.342;2024-02-23T03:36:50;14.30;;;8.83;;
8048;SDS011;20935;42.660;23.342;2024-02-23T03:39:37;13.03;;;9.67;;
8048;SDS011;20935;42.660;23.342;2024-02-23T03:42:27;10.83;;;8.63;;
8048;SDS011;20935;42.660;23.342;2024-02-23T03:45:14;13.17;;;9.33;;
8048;SDS011;20935;42.660;23.342;2024-02-23T03:48:01;14.07;;;9.87;;
8048;SDS011;20935;42.660;23.342;2024-02-23T03:50:50;11.43;;;9.50;;
8048;SDS011;20935;42.660;23.342;2024-02-23T03:53:37;11.83;;;8.97;;
8048;SDS011;20935;42.660;23.342;2024-02-23T03:56:24;11.13;;;8.50;;
8048;SDS011;20935;42.660;23.342;2024-02-23T03:59:10;12.07;;;8.97;;
8048;SDS011;20935;42.660;23.342;2024-02-23T04:01:57;13.83;;;10.03;;
8048;SDS011;20935;42.660;23.342;2024-02-23T04:04:44;11.47;;;9.00;;
8048;SDS011;20935;42.660;23.342;2024-02-23T04:07:32;10.73;;;8.83;;
8048;SDS011;20935;42.660;23.342;2024-02-23T04:10:19;11.50;;;8.87;;
8048;SDS011;20935;42.660;23.342;2024-02-23T04:13:06;12.00;;;10.00;;
8048;SDS011;20935;42.660;23.342;2024-02-23T04:15:56;12.27;;;9.17;;
8048;SDS011;20935;42.660;23.342;2024-02-23T04:18:43;13.97;;;9.90;;
8048;SDS011;20935;42.660;23.342;2024-02-23T04:21:30;16.93;;;10.17;;
8048;SDS011;20935;42.660;23.342;2024-02-23T04:24:18;12.30;;;9.47;;
8048;SDS011;20935;42.660;23.342;2024-02-23T04:27:05;13.87;;;9.97;;
8048;SDS011;20935;42.660;23.342;2024-02-23T04:29:52;12.73;;;9.57;;
8048;SDS011;20935;42.660;23.342;2024-02-23T04:32:39;15.07;;;10.03;;
8048;SDS011;20935;42.660;23.342;2024-02-23T04:35:25;14.90;;;9.77;;
8048;SDS011;20935;42.660;23.342;2024-02-23T04:38:12;12.30;;;9.57;;
8048;SDS011;20935;42.660;23.342;2024-02-23T04:41:02;13.13;;;10.53;;
8048;SDS011;20935;42.660;23.342;2024-02-23T04:43:49;14.37;;;9.30;;
8048;SDS011;20935;42.660;23.342;2024-02-23T04:46:35;13.63;;;9.87;;
8048;SDS011;20935;42.660;23.342;2024-02-23T04:49:22;14.03;;;10.00;;
8048;SDS011;20935;42.660;23.342;2024-02-23T04:52:09;15.20;;;10.53;;
8048;SDS011;20935;42.660;23.342;2024-02-23T04:54:56;17.00;;;11.37;;
8048;SDS011;20935;42.660;23.342;2024-02-23T04:57:44;14.77;;;10.60;;
8048;SDS011;20935;42.660;23.342;2024-02-23T05:00:34;13.47;;;10.53;;
8048;SDS011;20935;42.660;23.342;2024-02-23T05:03:21;15.10;;;10.60;;
8048;SDS011;20935;42.660;23.342;2024-02-23T05:06:08;15.80;;;11.40;;
8048;SDS011;20935;42.660;23.342;2024-02-23T05:08:54;14.10;;;10.83;;
8048;SDS011;20935;42.660;23.342;2024-02-23T05:11:44;13.57;;;10.03;;
8048;SDS011;20935;42.660;23.342;2024-02-23T05:14:34;13.13;;;10.50;;
8048;SDS011;20935;42.660;23.342;2024-02-23T05:17:24;13.30;;;10.03;;
8048;SDS011;20935;42.660;23.342;2024-02-23T05:20:13;13.17;;;10.20;;
8048;SDS011;20935;42.660;23.342;2024-02-23T05:23:00;13.63;;;10.47;;
8048;SDS011;20935;42.660;23.342;2024-02-23T05:25:47;17.20;;;12.37;;
8048;SDS011;20935;42.660;23.342;2024-02-23T05:28:34;15.07;;;10.83;;
8048;SDS011;20935;42.660;23.342;2024-02-23T05:31:43;16.00;;;11.17;;
8048;SDS011;20935;42.660;23.342;2024-02-23T05:34:33;14.07;;;10.77;;
8048;SDS011;20935;42.660;23.342;2024-02-23T05:37:20;13.63;;;10.20;;
8048;SDS011;20935;42.660;23.342;2024-02-23T05:40:07;16.50;;;11.00;;
8048;SDS011;20935;42.660;23.342;2024-02-23T05:42:56;13.17;;;10.90;;
8048;SDS011;20935;42.660;23.342;2024-02-23T05:45:43;15.03;;;10.83;;
8048;SDS011;20935;42.660;23.342;2024-02-23T05:48:32;15.97;;;11.27;;
8048;SDS011;20935;42.660;23.342;2024-02-23T05:51:19;14.27;;;10.53;;
8048;SDS011;20935;42.660;23.342;2024-02-23T05:54:10;16.17;;;11.30;;
8048;SDS011;20935;42.660;23.342;2024-02-23T05:56:59;17.63;;;11.13;;
8048;SDS011;20935;42.660;23.342;2024-02-23T05:59:46;17.20;;;11.77;;
8048;SDS011;20935;42.660;23.342;2024-02-23T06:02:33;14.93;;;11.40;;
8048;SDS011;20935;42.660;23.342;2024-02-23T06:05:21;18.73;;;12.23;;
8048;SDS011;20935;42.660;23.342;2024-02-23T06:08:08;16.20;;;12.47;;
8048;SDS011;20935;42.660;23.342;2024-02-23T06:10:55;18.37;;;12.63;;
8048;SDS011;20935;42.660;23.342;2024-02-23T06:13:44;17.60;;;11.70;;
8048;SDS011;20935;42.660;23.342;2024-02-23T06:16:31;14.53;;;11.30;;
8048;SDS011;20935;42.660;23.342;2024-02-23T06:19:18;16.77;;;12.90;;
8048;SDS011;20935;42.660;23.342;2024-02-23T06:22:09;16.63;;;12.73;;
8048;SDS011;20935;42.660;23.342;2024-02-23T06:25:02;20.07;;;13.70;;
8048;SDS011;20935;42.660;23.342;2024-02-23T06:27:49;18.50;;;11.83;;
8048;SDS011;20935;42.660;23.342;2024-02-23T06:30:35;22.13;;;12.57;;
8048;SDS011;20935;42.660;23.342;2024-02-23T06:33:22;18.00;;;12.03;;
8048;SDS011;20935;42.660;23.342;2024-02-23T06:36:10;20.07;;;12.87;;
8048;SDS011;20935;42.660;23.342;2024-02-23T06:38:58;17.93;;;12.60;;
8048;SDS011;20935;42.660;23.342;2024-02-23T06:41:50;18.20;;;12.07;;
8048;SDS011;20935;42.660;23.342;2024-02-23T06:44:37;15.40;;;12.07;;
8048;SDS011;20935;42.660;23.342;2024-02-23T06:47:27;17.23;;;11.87;;
8048;SDS011;20935;42.660;23.342;2024-02-23T06:50:13;18.67;;;13.07;;
8048;SDS011;20935;42.660;23.342;2024-02-23T06:53:00;17.73;;;12.53;;
8048;SDS011;20935;42.660;23.342;2024-02-23T06:55:49;16.00;;;12.43;;
8048;SDS011;20935;42.660;23.342;2024-02-23T06:58:35;16.30;;;11.77;;
8048;SDS011;20935;42.660;23.342;2024-02-23T07:01:22;24.13;;;12.60;;
8048;SDS011;20935;42.660;23.342;2024-02-23T07:04:09;15.00;;;11.70;;
8048;SDS011;20935;42.660;23.342;2024-02-23T07:06:56;17.53;;;11.40;;
8048;SDS011;20935;42.660;23.342;2024-02-23T07:09:43;17.30;;;12.33;;
8048;SDS011;20935;42.660;23.342;2024-02-23T07:12:32;15.07;;;11.73;;
8048;SDS011;20935;42.660;23.342;2024-02-23T07:15:19;16.80;;;11.50;;
8048;SDS011;20935;42.660;23.342;2024-02-23T07:18:06;17.47;;;11.67;;
8048;SDS011;20935;42.660;23.342;2024-02-23T07:20:53;15.23;;;11.67;;
8048;SDS011;20935;42.660;23.342;2024-02-23T07:23:40;18.37;;;12.13;;
8048;SDS011;20935;42.660;23.342;2024-02-23T07:26:27;15.67;;;11.33;;
8048;SDS011;20935;42.660;23.342;2024-02-23T07:29:16;14.83;;;11.00;;
8048;SDS011;20935;42.660;23.342;2024-02-23T07:32:03;18.50;;;12.40;;
8048;SDS011;20935;42.660;23.342;2024-02-23T07:34:49;16.43;;;12.30;;
8048;SDS011;20935;42.660;23.342;2024-02-23T07:37:36;16.93;;;13.43;;
8048;SDS011;20935;42.660;23.342;2024-02-23T07:40:23;17.87;;;13.03;;
8048;SDS011;20935;42.660;23.342;2024-02-23T07:43:10;16.20;;;12.83;;
8048;SDS011;20935;42.660;23.342;2024-02-23T07:45:58;20.67;;;13.17;;
8048;SDS011;20935;42.660;23.342;2024-02-23T07:48:45;14.93;;;11.60;;
8048;SDS011;20935;42.660;23.342;2024-02-23T07:51:33;17.37;;;12.47;;
8048;SDS011;20935;42.660;23.342;2024-02-23T07:54:20;22.13;;;13.33;;
8048;SDS011;20935;42.660;23.342;2024-02-23T07:57:07;21.17;;;14.27;;
8048;SDS011;20935;42.660;23.342;2024-02-23T07:59:54;21.93;;;13.77;;
8048;SDS011;20935;42.660;23.342;2024-02-23T08:02:42;17.70;;;12.63;;
8048;SDS011;20935;42.660;23.342;2024-02-23T08:05:29;16.43;;;11.57;;
8048;SDS011;20935;42.660;23.342;2024-02-23T08:08:16;17.87;;;12.83;;
8048;SDS011;20935;42.660;23.342;2024-02-23T08:11:03;15.83;;;12.20;;
8048;SDS011;20935;42.660;23.342;2024-02-23T08:13:50;17.03;;;12.13;;
8048;SDS011;20935;42.660;23.342;2024-02-23T08:16:37;17.90;;;12.33;;
8048;SDS011;20935;42.660;23.342;2024-02-23T08:19:25;14.23;;;11.30;;
8048;SDS011;20935;42.660;23.342;2024-02-23T08:22:12;17.17;;;12.67;;
8048;SDS011;20935;42.660;23.342;2024-02-23T08:24:59;18.70;;;12.67;;
8048;SDS011;20935;42.660;23.342;2024-02-23T08:27:46;16.57;;;12.20;;
8048;SDS011;20935;42.660;23.342;2024-02-23T08:30:33;15.60;;;11.63;;
8048;SDS011;20935;42.660;23.342;2024-02-23T08:33:19;13.50;;;11.17;;
8048;SDS011;20935;42.660;23.342;2024-02-23T08:36:08;16.97;;;11.97;;
8048;SDS011;20935;42.660;23.342;2024-02-23T08:38:55;14.97;;;11.70;;
8048;SDS011;20935;42.660;23.342;2024-02-23T08:41:41;18.43;;;13.17;;
8048;SDS011;20935;42.660;23.342;2024-02-23T08:44:28;16.77;;;12.47;;
8048;SDS011;20935;42.660;23.342;2024-02-23T08:47:15;13.00;;;11.30;;
8048;SDS011;20935;42.660;23.342;2024-02-23T08:50:02;15.57;;;11.70;;
8048;SDS011;20935;42.660;23.342;2024-02-23T08:52:51;17.70;;;12.80;;
8048;SDS011;20935;42.660;23.342;2024-02-23T08:55:41;15.07;;;10.97;;
8048;SDS011;20935;42.660;23.342;2024-02-23T08:58:27;16.23;;;11.80;;
8048;SDS011;20935;42.660;23.342;2024-02-23T09:01:14;17.77;;;12.33;;
8048;SDS011;20935;42.660;23.342;2024-02-23T09:04:01;21.90;;;12.63;;
8048;SDS011;20935;42.660;23.342;2024-02-23T09:06:48;18.60;;;13.40;;
8048;SDS011;20935;42.660;23.342;2024-02-23T09:09:37;18.03;;;10.60;;
8048;SDS011;20935;42.660;23.342;2024-02-23T09:12:24;16.53;;;11.53;;
8048;SDS011;20935;42.660;23.342;2024-02-23T09:15:11;13.83;;;9.93;;
8048;SDS011;20935;42.660;23.342;2024-02-23T09:17:58;12.77;;;8.90;;
8048;SDS011;20935;42.660;23.342;2024-02-23T09:20:45;14.97;;;10.07;;
8048;SDS011;20935;42.660;23.342;2024-02-23T09:23:31;14.80;;;9.73;;
8048;SDS011;20935;42.660;23.342;2024-02-23T09:26:20;11.67;;;9.17;;
8048;SDS011;20935;42.660;23.342;2024-02-23T09:29:06;12.63;;;8.57;;
8048;SDS011;20935;42.660;23.342;2024-02-23T09:31:53;11.40;;;9.20;;
8048;SDS011;20935;42.660;23.342;2024-02-23T09:34:40;11.73;;;8.33;;
8048;SDS011;20935;42.660;23.342;2024-02-23T09:37:27;10.20;;;8.90;;
8048;SDS011;20935;42.660;23.342;2024-02-23T09:40:14;10.20;;;7.60;;
8048;SDS011;20935;42.660;23.342;2024-02-23T09:43:03;9.67;;;7.60;;
8048;SDS011;20935;42.660;23.342;2024-02-23T09:45:54;9.47;;;7.00;;
8048;SDS011;20935;42.660;23.342;2024-02-23T09:48:42;7.97;;;6.50;;
8048;SDS011;20935;42.660;23.342;2024-02-23T09:51:29;7.53;;;6.00;;
8048;SDS011;20935;42.660;23.342;2024-02-23T09:54:18;6.33;;;5.27;;
8048;SDS011;20935;42.660;23.342;2024-02-23T09:57:06;6.20;;;4.57;;
8048;SDS011;20935;42.660;23.342;2024-02-23T09:59:54;5.93;;;3.00;;
8048;SDS011;20935;42.660;23.342;2024-02-23T10:02:50;3.60;;;3.27;;
8048;SDS011;20935;42.660;23.342;2024-02-23T10:05:36;3.87;;;3.10;;
8048;SDS011;20935;42.660;23.342;2024-02-23T10:08:22;3.93;;;3.40;;
8048;SDS011;20935;42.660;23.342;2024-02-23T10:11:07;4.43;;;3.97;;
8048;SDS011;20935;42.660;23.342;2024-02-23T10:13:52;8.10;;;4.40;;
8048;SDS011;20935;42.660;23.342;2024-02-23T10:16:38;5.77;;;4.03;;
8048;SDS011;20935;42.660;23.342;2024-02-23T10:19:24;6.07;;;4.73;;
8048;SDS011;20935;42.660;23.342;2024-02-23T10:22:12;4.87;;;4.37;;
8048;SDS011;20935;42.660;23.342;2024-02-23T10:24:57;5.30;;;4.20;;
8048;SDS011;20935;42.660;23.342;2024-02-23T10:27:42;7.17;;;4.37;;
8048;SDS011;20935;42.660;23.342;2024-02-23T10:30:28;5.30;;;4.13;;
8048;SDS011;20935;42.660;23.342;2024-02-23T10:33:14;7.17;;;4.33;;
8048;SDS011;20935;42.660;23.342;2024-02-23T10:35:59;4.43;;;4.03;;
8048;SDS011;20935;42.660;23.342;2024-02-23T10:38:45;5.17;;;3.93;;
8048;SDS011;20935;42.660;23.342;2024-02-23T10:41:31;3.63;;;3.13;;
8048;SDS011;20935;42.660;23.342;2024-02-23T10:44:19;3.00;;;2.70;;
8048;SDS011;20935;42.660;23.342;2024-02-23T10:47:05;4.30;;;3.30;;
8048;SDS011;20935;42.660;23.342;2024-02-23T10:49:51;4.37;;;3.97;;
8048;SDS011;20935;42.660;23.342;2024-02-23T10:52:37;4.63;;;3.37;;
8048;SDS011;20935;42.660;23.342;2024-02-23T10:55:23;7.50;;;3.70;;
8048;SDS011;20935;42.660;23.342;2024-02-23T10:58:10;5.70;;;3.83;;
8048;SDS011;20935;42.660;23.342;2024-02-23T11:00:58;3.53;;;3.00;;
8048;SDS011;20935;42.660;23.342;2024-02-23T11:03:44;4.70;;;2.70;;
8048;SDS011;20935;42.660;23.342;2024-02-23T11:06:34;3.13;;;2.83;;
8048;SDS011;20935;42.660;23.342;2024-02-23T11:09:20;4.17;;;3.20;;
8048;SDS011;20935;42.660;23.342;2024-02-23T11:12:06;4.33;;;3.23;;
8048;SDS011;20935;42.660;23.342;2024-02-23T11:14:51;4.90;;;2.90;;
8048;SDS011;20935;42.660;23.342;2024-02-23T11:17:36;2.67;;;2.47;;
8048;SDS011;20935;42.660;23.342;2024-02-23T11:20:21;2.83;;;2.60;;
8048;SDS011;20935;42.660;23.342;2024-02-23T11:23:16;3.97;;;2.80;;
8048;SDS011;20935;42.660;23.342;2024-02-23T11:26:05;3.67;;;2.67;;
8048;SDS011;20935;42.660;23.342;2024-02-23T11:28:52;3.47;;;2.77;;
8048;SDS011;20935;42.660;23.342;2024-02-23T11:31:37;2.90;;;2.60;;
8048;SDS011;20935;42.660;23.342;2024-02-23T11:34:31;3.27;;;2.73;;
8048;SDS011;20935;42.660;23.342;2024-02-23T11:37:19;3.20;;;2.37;;
8048;SDS011;20935;42.660;23.342;2024-02-23T11:40:06;6.93;;;3.23;;
8048;SDS011;20935;42.660;23.342;2024-02-23T11:42:54;2.67;;;2.47;;
8048;SDS011;20935;42.660;23.342;2024-02-23T11:45:39;3.17;;;2.57;;
8048;SDS011;20935;42.660;23.342;2024-02-23T11:48:25;3.27;;;2.70;;
8048;SDS011;20935;42.660;23.342;2024-02-23T11:51:10;2.80;;;2.60;;
8048;SDS011;20935;42.660;23.342;2024-02-23T11:53:55;2.50;;;2.30;;
8048;SDS011;20935;42.660;23.342;2024-02-23T11:56:43;3.20;;;2.90;;
8048;SDS011;20935;42.660;23.342;2024-02-23T11:59:28;2.67;;;2.47;;
8048;SDS011;20935;42.660;23.342;2024-02-23T12:02:13;2.53;;;2.33;;
8048;SDS011;20935;42.660;23.342;2024-02-23T12:04:58;2.60;;;2.40;;
8048;SDS011;20935;42.660;23.342;2024-02-23T12:07:43;3.07;;;2.73;;
8048;SDS011;20935;42.660;23.342;2024-02-23T12:10:28;3.33;;;2.80;;
8048;SDS011;20935;42.660;23.342;2024-02-23T12:13:15;3.33;;;2.77;;
8048;SDS011;20935;42.660;23.342;2024-02-23T12:16:00;5.07;;;2.83;;
8048;SDS011;20935;42.660;23.342;2024-02-23T12:18:45;3.23;;;2.83;;
8048;SDS011;20935;42.660;23.342;2024-02-23T12:21:37;2.60;;;2.40;;
8048;SDS011;20935;42.660;23.342;2024-02-23T12:24:25;3.27;;;2.30;;
8048;SDS011;20935;42.660;23.342;2024-02-23T12:27:11;3.10;;;2.50;;
8048;SDS011;20935;42.660;23.342;2024-02-23T12:29:58;3.07;;;2.60;;
8048;SDS011;20935;42.660;23.342;2024-02-23T12:32:45;3.47;;;2.73;;
8048;SDS011;20935;42.660;23.342;2024-02-23T12:35:30;2.33;;;2.10;;
8048;SDS011;20935;42.660;23.342;2024-02-23T12:38:15;2.53;;;2.33;;
8048;SDS011;20935;42.660;23.342;2024-02-23T12:41:00;3.87;;;3.27;;
8048;SDS011;20935;42.660;23.342;2024-02-23T12:43:46;2.80;;;2.60;;
8048;SDS011;20935;42.660;23.342;2024-02-23T12:46:32;2.20;;;2.00;;
8048;SDS011;20935;42.660;23.342;2024-02-23T12:49:21;2.80;;;2.50;;
8048;SDS011;20935;42.660;23.342;2024-02-23T12:52:08;2.77;;;2.57;;
8048;SDS011;20935;42.660;23.342;2024-02-23T12:54:54;2.23;;;2.13;;
8048;SDS011;20935;42.660;23.342;2024-02-23T12:57:39;2.83;;;2.40;;
8048;SDS011;20935;42.660;23.342;2024-02-23T13:00:24;2.60;;;2.30;;
8048;SDS011;20935;42.660;23.342;2024-02-23T13:03:10;11.83;;;8.80;;
8048;SDS011;20935;42.660;23.342;2024-02-23T13:05:57;2.90;;;2.33;;
8048;SDS011;20935;42.660;23.342;2024-02-23T13:08:44;2.77;;;2.50;;
8048;SDS011;20935;42.660;23.342;2024-02-23T13:11:32;2.73;;;2.43;;
8048;SDS011;20935;42.660;23.342;2024-02-23T13:14:18;2.63;;;2.30;;
8048;SDS011;20935;42.660;23.342;2024-02-23T13:17:05;2.70;;;2.50;;
8048;SDS011;20935;42.660;23.342;2024-02-23T13:19:53;2.50;;;1.97;;
8048;SDS011;20935;42.660;23.342;2024-02-23T13:22:40;2.17;;;2.07;;
8048;SDS011;20935;42.660;23.342;2024-02-23T13:25:27;3.00;;;2.70;;
8048;SDS011;20935;42.660;23.342;2024-02-23T13:28:14;2.87;;;2.60;;
8048;SDS011;20935;42.660;23.342;2024-02-23T13:31:00;2.70;;;2.50;;
8048;SDS011;20935;42.660;23.342;2024-02-23T13:33:48;3.20;;;2.60;;
8048;SDS011;20935;42.660;23.342;2024-02-23T13:36:36;4.17;;;2.80;;
8048;SDS011;20935;42.660;23.342;2024-02-23T13:39:24;2.70;;;2.50;;
8048;SDS011;20935;42.660;23.342;2024-02-23T13:42:10;2.50;;;2.20;;
8048;SDS011;20935;42.660;23.342;2024-02-23T13:44:57;3.00;;;2.80;;
8048;SDS011;20935;42.660;23.342;2024-02-23T13:47:44;3.00;;;2.67;;
8048;SDS011;20935;42.660;23.342;2024-02-23T13:50:41;3.20;;;2.90;;
8048;SDS011;20935;42.660;23.342;2024-02-23T13:53:30;3.50;;;2.50;;
8048;SDS011;20935;42.660;23.342;2024-02-23T13:56:18;3.73;;;2.87;;
8048;SDS011;20935;42.660;23.342;2024-02-23T13:59:04;4.57;;;3.30;;
8048;SDS011;20935;42.660;23.342;2024-02-23T14:01:51;4.63;;;2.70;;
8048;SDS011;20935;42.660;23.342;2024-02-23T14:04:38;4.20;;;2.80;;
8048;SDS011;20935;42.660;23.342;2024-02-23T14:07:25;3.90;;;3.33;;
8048;SDS011;20935;42.660;23.342;2024-02-23T14:10:13;4.33;;;2.63;;
8048;SDS011;20935;42.660;23.342;2024-02-23T14:13:00;3.37;;;2.93;;
8048;SDS011;20935;42.660;23.342;2024-02-23T14:15:47;4.37;;;2.30;;
8048;SDS011;20935;42.660;23.342;2024-02-23T14:18:33;3.17;;;2.53;;
8048;SDS011;20935;42.660;23.342;2024-02-23T14:21:22;3.20;;;2.37;;
8048;SDS011;20935;42.660;23.342;2024-02-23T14:24:10;3.60;;;2.73;;
8048;SDS011;20935;42.660;23.342;2024-02-23T14:26:58;3.23;;;2.40;;
8048;SDS011;20935;42.660;23.342;2024-02-23T14:29:45;2.80;;;2.60;;
8048;SDS011;20935;42.660;23.342;2024-02-23T14:32:32;4.63;;;2.10;;
8048;SDS011;20935;42.660;23.342;2024-02-23T14:35:20;3.83;;;2.77;;
8048;SDS011;20935;42.660;23.342;2024-02-23T14:38:07;3.27;;;2.60;;
8048;SDS011;20935;42.660;23.342;2024-02-23T14:40:54;3.00;;;2.70;;
8048;SDS011;20935;42.660;23.342;2024-02-23T14:43:42;2.90;;;2.37;;
8048;SDS011;20935;42.660;23.342;2024-02-23T14:46:28;3.03;;;2.23;;
8048;SDS011;20935;42.660;23.342;2024-02-23T14:49:15;3.07;;;2.77;;
8048;SDS011;20935;42.660;23.342;2024-02-23T14:52:02;2.77;;;2.50;;
8048;SDS011;20935;42.660;23.342;2024-02-23T14:54:49;3.10;;;2.80;;
8048;SDS011;20935;42.660;23.342;2024-02-23T14:57:36;3.37;;;3.07;;
8048;SDS011;20935;42.660;23.342;2024-02-23T15:00:24;3.07;;;2.77;;
8048;SDS011;20935;42.660;23.342;2024-02-23T15:03:11;3.00;;;2.70;;
8048;SDS011;20935;42.660;23.342;2024-02-23T15:05:58;4.10;;;2.80;;
8048;SDS011;20935;42.660;23.342;2024-02-23T15:08:46;3.13;;;2.87;;
8048;SDS011;20935;42.660;23.342;2024-02-23T15:11:33;3.10;;;2.87;;
8048;SDS011;20935;42.660;23.342;2024-02-23T15:14:20;3.23;;;2.93;;
8048;SDS011;20935;42.660;23.342;2024-02-23T15:17:08;2.80;;;2.50;;
8048;SDS011;20935;42.660;23.342;2024-02-23T15:19:55;4.07;;;3.17;;
8048;SDS011;20935;42.660;23.342;2024-02-23T15:22:42;3.57;;;2.70;;
8048;SDS011;20935;42.660;23.342;2024-02-23T15:25:30;4.00;;;2.90;;
8048;SDS011;20935;42.660;23.342;2024-02-23T15:28:19;3.80;;;3.40;;
8048;SDS011;20935;42.660;23.342;2024-02-23T15:31:08;3.43;;;3.13;;
8048;SDS011;20935;42.660;23.342;2024-02-23T15:33:56;3.20;;;2.90;;
8048;SDS011;20935;42.660;23.342;2024-02-23T15:36:45;3.10;;;2.87;;
8048;SDS011;20935;42.660;23.342;2024-02-23T15:39:32;2.77;;;2.57;;
8048;SDS011;20935;42.660;23.342;2024-02-23T15:42:19;3.57;;;3.27;;
8048;SDS011;20935;42.660;23.342;2024-02-23T15:45:06;3.47;;;3.10;;
8048;SDS011;20935;42.660;23.342;2024-02-23T15:47:53;3.30;;;3.00;;
8048;SDS011;20935;42.660;23.342;2024-02-23T15:50:41;4.77;;;4.33;;
8048;SDS011;20935;42.660;23.342;2024-02-23T15:53:28;3.67;;;3.37;;
8048;SDS011;20935;42.660;23.342;2024-02-23T15:56:18;3.60;;;3.30;;
8048;SDS011;20935;42.660;23.342;2024-02-23T15:59:05;4.13;;;3.70;;
8048;SDS011;20935;42.660;23.342;2024-02-23T16:01:53;5.17;;;3.73;;
8048;SDS011;20935;42.660;23.342;2024-02-23T16:04:40;4.03;;;3.73;;
8048;SDS011;20935;42.660;23.342;2024-02-23T16:07:28;3.70;;;3.20;;
8048;SDS011;20935;42.660;23.342;2024-02-23T16:10:15;3.57;;;3.27;;
8048;SDS011;20935;42.660;23.342;2024-02-23T16:13:04;3.80;;;3.37;;
8048;SDS011;20935;42.660;23.342;2024-02-23T16:15:50;6.07;;;4.03;;
8048;SDS011;20935;42.660;23.342;2024-02-23T16:18:37;5.37;;;3.60;;
8048;SDS011;20935;42.660;23.342;2024-02-23T16:21:24;3.87;;;3.50;;
8048;SDS011;20935;42.660;23.342;2024-02-23T16:24:12;4.23;;;3.87;;
8048;SDS011;20935;42.660;23.342;2024-02-23T16:26:59;4.03;;;3.67;;
8048;SDS011;20935;42.660;23.342;2024-02-23T16:29:46;3.70;;;3.40;;
8048;SDS011;20935;42.660;23.342;2024-02-23T16:32:32;4.73;;;3.80;;
8048;SDS011;20935;42.660;23.342;2024-02-23T16:35:19;4.87;;;3.60;;